Time;durP1;ratioP1;P1;durP2;ratioP2;P2;SDS_P1;SDS_P2;PMS_P1;PMS_P2;Temp;Humidity;BMP_temperature;BMP_pressure;BME280_temperature;BME280_humidity;BME280_pressure;Samples;Min_cycle;Max_cycle;Signal;HPM_P1;HPM_P2
2022/10/01 00:01:59;;;;;;;3.45;1.30;;;13.30;63.40;;;;;;2622090;52;20924;-75
2022/10/01 00:04:26;;;;;;;2.05;0.95;;;13.30;63.40;;;;;;2623443;52;20914;-73
2022/10/01 00:06:52;;;;;;;3.30;1.15;;;13.30;63.50;;;;;;2372128;53;21042;-73
2022/10/01 00:09:18;;;;;;;2.85;1.10;;;13.40;63.50;;;;;;2372982;53;20918;-73
2022/10/01 00:11:45;;;;;;;2.40;1.23;;;13.40;63.60;;;;;;2372258;53;20922;-73
2022/10/01 00:14:42;;;;;;;2.65;1.20;;;13.40;63.70;;;;;;2359057;53;21053;-74
2022/10/01 00:17:08;;;;;;;2.60;1.20;;;13.40;63.70;;;;;;2366222;53;20950;-74
2022/10/01 00:19:34;;;;;;;2.22;1.30;;;13.40;63.70;;;;;;2373291;53;20958;-74
2022/10/01 00:22:00;;;;;;;2.72;1.23;;;13.40;63.70;;;;;;2369351;53;21587;-74
2022/10/01 00:24:27;;;;;;;2.42;1.08;;;13.50;63.90;;;;;;2367218;53;21438;-73
2022/10/01 00:26:53;;;;;;;2.65;1.10;;;13.50;63.90;;;;;;2519882;52;21379;-74
2022/10/01 00:29:19;;;;;;;2.58;1.00;;;13.50;64.00;;;;;;2350849;53;21098;-74
2022/10/01 00:31:45;;;;;;;2.47;1.23;;;13.50;64.00;;;;;;2351223;53;20993;-74
2022/10/01 00:34:15;;;;;;;2.30;1.15;;;13.50;64.00;;;;;;2461866;52;21054;-74
2022/10/01 00:36:41;;;;;;;3.42;1.20;;;13.60;64.20;;;;;;2607909;52;21005;-74
2022/10/01 00:39:09;;;;;;;2.45;1.20;;;13.60;64.20;;;;;;2371008;53;21706;-73
2022/10/01 00:41:35;;;;;;;2.50;1.20;;;13.60;64.20;;;;;;2370647;53;20987;-74
2022/10/01 00:44:22;;;;;;;2.15;1.05;;;13.70;64.30;;;;;;2371599;53;20975;-74
2022/10/01 00:46:48;;;;;;;2.50;1.10;;;13.70;64.30;;;;;;2623445;52;20998;-74
2022/10/01 00:49:16;;;;;;;2.90;1.37;;;13.70;64.20;;;;;;2370721;53;20986;-74
2022/10/01 00:52:17;;;;;;;2.37;1.30;;;13.80;64.40;;;;;;2371668;53;21834;-74
2022/10/01 00:54:48;;;;;;;2.37;1.10;;;13.80;64.30;;;;;;2371065;53;20918;-74
2022/10/01 00:57:16;;;;;;;2.40;1.15;;;13.80;64.30;;;;;;2343513;53;20930;-74
2022/10/01 00:59:44;;;;;;;2.70;1.20;;;13.90;64.40;;;;;;2379139;52;20938;-74
2022/10/01 01:02:11;;;;;;;2.72;1.33;;;13.90;64.30;;;;;;2370628;53;21736;-74
2022/10/01 01:04:40;;;;;;;3.70;1.35;;;13.90;64.30;;;;;;2622742;52;21787;-74
2022/10/01 01:07:15;;;;;;;2.05;1.00;;;13.90;64.30;;;;;;2369773;53;21522;-74
2022/10/01 01:09:46;;;;;;;2.28;1.17;;;14.00;64.40;;;;;;2370823;53;20950;-73
2022/10/01 01:19:11;;;;;;;2.75;1.30;;;14.00;64.40;;;;;;2371242;53;20933;-74
2022/10/01 01:21:41;;;;;;;1.95;0.80;;;14.00;64.30;;;;;;2623942;52;20919;-74
2022/10/01 01:24:35;;;;;;;2.50;1.10;;;14.10;64.00;;;;;;2358256;53;21732;-74
2022/10/01 01:27:28;;;;;;;2.12;0.93;;;14.10;64.10;;;;;;2512364;52;20945;-74
2022/10/01 01:30:04;;;;;;;1.83;0.80;;;14.20;64.20;;;;;;2370983;53;20961;-74
2022/10/01 01:32:49;;;;;;;2.25;0.90;;;14.20;64.20;;;;;;2369019;56;21026;-74
2022/10/01 01:36:22;;;;;;;2.17;1.02;;;14.20;64.10;;;;;;2486736;52;20982;-74
2022/10/01 01:38:54;;;;;;;2.50;1.00;;;14.20;64.20;;;;;;2368721;53;20929;-73
2022/10/01 01:44:49;;;;;;;2.10;0.80;;;14.20;63.90;;;;;;2343975;54;21106;-74
2022/10/01 01:47:17;;;;;;;2.62;1.02;;;14.30;64.10;;;;;;2606325;52;20911;-74
2022/10/01 01:49:44;;;;;;;2.22;0.90;;;14.30;64.20;;;;;;2371465;53;20954;-74
2022/10/01 01:52:16;;;;;;;1.83;0.75;;;14.30;64.10;;;;;;2370047;53;21033;-73
2022/10/01 01:54:43;;;;;;;2.25;0.90;;;14.30;64.10;;;;;;2623024;52;20978;-74
2022/10/01 01:57:12;;;;;;;1.58;0.70;;;14.30;64.10;;;;;;2615540;52;20986;-74
2022/10/01 01:59:38;;;;;;;2.33;0.80;;;14.30;64.00;;;;;;2623235;52;20946;-74
2022/10/01 02:02:07;;;;;;;2.50;0.90;;;14.40;64.10;;;;;;2367815;53;20973;-73
2022/10/01 02:04:45;;;;;;;2.47;0.90;;;14.40;64.10;;;;;;2370386;53;20936;-73
2022/10/01 02:14:19;;;;;;;2.17;0.90;;;14.40;64.00;;;;;;2370863;53;20938;-74
2022/10/01 02:17:12;;;;;;;1.37;0.60;;;14.40;63.90;;;;;;2370176;53;20922;-74
2022/10/01 02:19:48;;;;;;;;;;;14.50;63.80;;;;;;2539513;52;20953;-74
2022/10/01 02:22:23;;;;;;;2.17;0.70;;;14.50;63.50;;;;;;2370445;53;20074;-74
2022/10/01 02:24:56;;;;;;;1.85;0.80;;;14.50;63.60;;;;;;2372269;53;20998;-74
2022/10/01 02:27:29;;;;;;;2.25;0.80;;;14.60;63.90;;;;;;2538351;52;21640;-74
2022/10/01 02:29:57;;;;;;;1.70;0.70;;;14.60;63.90;;;;;;2371075;53;20919;-74
2022/10/01 02:32:23;;;;;;;1.58;0.70;;;14.60;64.00;;;;;;2611471;52;20985;-74
2022/10/01 02:34:50;;;;;;;2.25;0.80;;;14.60;64.00;;;;;;2348479;53;20952;-74
2022/10/01 02:37:18;;;;;;;1.80;0.80;;;14.60;63.90;;;;;;2366774;53;21428;-74
2022/10/01 02:39:44;;;;;;;1.85;0.80;;;14.60;63.90;;;;;;2371527;53;20918;-74
2022/10/01 02:42:11;;;;;;;1.52;0.80;;;14.60;63.90;;;;;;2371074;53;21780;-74
2022/10/01 02:44:39;;;;;;;1.90;0.80;;;14.60;63.80;;;;;;2371316;53;20926;-74
2022/10/01 02:47:11;;;;;;;1.98;0.90;;;14.60;63.70;;;;;;2362621;53;20947;-74
2022/10/01 02:49:38;;;;;;;2.47;0.90;;;14.70;63.70;;;;;;2361368;53;20927;-73
2022/10/01 02:52:28;;;;;;;1.50;0.75;;;14.70;63.70;;;;;;2370183;53;20931;-74
2022/10/01 02:55:15;;;;;;;4.55;0.93;;;14.70;63.60;;;;;;2371490;53;21014;-73
2022/10/01 02:57:41;;;;;;;2.10;0.90;;;14.70;63.40;;;;;;2622578;52;20918;-74
2022/10/01 03:00:09;;;;;;;2.15;0.90;;;14.70;63.50;;;;;;2370424;53;20950;-73
2022/10/01 03:06:03;;;;;;;2.05;0.73;;;14.80;63.20;;;;;;2493847;52;20931;-75
2022/10/01 03:08:30;;;;;;;2.05;0.80;;;14.70;63.30;;;;;;2371318;53;21002;-73
2022/10/01 03:11:19;;;;;;;2.50;0.80;;;14.80;63.30;;;;;;2465820;52;21011;-73
2022/10/01 03:13:45;;;;;;;2.08;0.90;;;14.80;63.00;;;;;;2358714;53;20986;-73
2022/10/01 03:16:11;;;;;;;1.65;0.80;;;14.80;63.30;;;;;;2353798;53;20962;-73
2022/10/01 03:18:38;;;;;;;2.08;0.90;;;14.80;63.20;;;;;;2374944;53;20946;-73
2022/10/01 03:21:04;;;;;;;1.80;0.90;;;14.80;63.10;;;;;;2371630;53;20927;-73
2022/10/01 03:23:30;;;;;;;2.40;0.80;;;14.80;63.10;;;;;;2375741;53;20921;-74
2022/10/01 03:25:56;;;;;;;2.22;0.95;;;14.80;63.00;;;;;;2359479;53;21043;-73
2022/10/01 03:28:41;;;;;;;2.35;0.95;;;14.80;63.00;;;;;;2356901;53;20981;-73
2022/10/01 03:31:08;;;;;;;1.92;0.80;;;14.80;62.50;;;;;;2371132;53;20902;-73
2022/10/01 03:33:37;;;;;;;2.33;0.85;;;14.80;62.80;;;;;;2366782;53;20927;-73
2022/10/01 03:36:03;;;;;;;2.15;0.85;;;14.80;62.80;;;;;;2373961;53;21014;-73
2022/10/01 03:38:30;;;;;;;1.90;0.93;;;14.80;62.80;;;;;;2372154;53;21778;-74
2022/10/01 03:40:56;;;;;;;2.05;1.00;;;14.90;62.80;;;;;;2549819;52;20978;-73
2022/10/01 03:43:23;;;;;;;2.08;0.98;;;14.90;62.80;;;;;;2371634;53;21779;-73
2022/10/01 03:45:49;;;;;;;2.00;0.82;;;14.90;62.80;;;;;;2370795;53;21002;-74
2022/10/01 03:48:17;;;;;;;2.30;0.90;;;14.90;62.70;;;;;;2371541;53;20990;-73
2022/10/01 03:50:52;;;;;;;2.00;0.85;;;14.90;62.70;;;;;;2556488;52;21464;-73
2022/10/01 03:53:18;;;;;;;2.22;0.85;;;14.90;62.60;;;;;;2369957;53;21086;-73
2022/10/01 03:55:45;;;;;;;2.60;1.20;;;14.90;62.60;;;;;;2466522;52;20935;-73
2022/10/01 03:58:11;;;;;;;2.25;0.98;;;14.90;62.60;;;;;;2372170;53;20935;-74
2022/10/01 04:00:38;;;;;;;2.10;1.00;;;14.90;62.60;;;;;;2371918;53;20974;-74
2022/10/01 04:03:05;;;;;;;3.47;0.90;;;14.90;62.50;;;;;;2371226;53;21018;-73
2022/10/01 04:05:32;;;;;;;1.80;0.80;;;14.90;62.50;;;;;;2371795;53;21034;-73
2022/10/01 04:07:59;;;;;;;2.17;0.80;;;14.90;62.40;;;;;;2371466;53;21010;-74
2022/10/01 04:10:26;;;;;;;2.17;0.90;;;14.90;62.30;;;;;;2370392;53;20934;-73
2022/10/01 04:12:54;;;;;;;3.22;0.90;;;14.90;62.30;;;;;;2371172;53;20997;-74
2022/10/01 04:15:21;;;;;;;2.40;1.10;;;14.90;62.30;;;;;;2624322;52;20970;-73
2022/10/01 04:17:48;;;;;;;2.90;0.90;;;15.00;62.40;;;;;;2624240;52;21455;-73
2022/10/01 04:20:15;;;;;;;3.22;0.98;;;15.00;62.40;;;;;;2371979;53;20950;-73
2022/10/01 04:22:41;;;;;;;2.47;0.80;;;15.00;62.40;;;;;;2371329;53;20998;-74
2022/10/01 04:25:09;;;;;;;2.35;0.80;;;15.00;63.00;;;;;;2371545;53;20922;-74
2022/10/01 04:27:52;;;;;;;1.40;0.70;;;15.00;62.20;;;;;;2376643;53;20986;-74
2022/10/01 04:30:18;;;;;;;2.33;0.98;;;15.00;62.10;;;;;;2351193;53;21526;-73
2022/10/01 04:32:44;;;;;;;2.00;0.90;;;15.00;62.10;;;;;;2380846;53;21743;-73
2022/10/01 04:35:11;;;;;;;5.00;1.00;;;15.00;62.10;;;;;;2368298;53;20914;-74
2022/10/01 04:37:37;;;;;;;1.90;0.90;;;15.00;62.10;;;;;;2604366;52;20895;-73
2022/10/01 04:40:04;;;;;;;1.90;0.85;;;15.00;62.00;;;;;;2357738;53;20993;-73
2022/10/01 04:42:31;;;;;;;2.97;1.00;;;15.10;62.80;;;;;;2370928;53;21474;-73
2022/10/01 04:44:57;;;;;;;1.87;0.80;;;15.10;62.10;;;;;;2371585;53;20970;-73
2022/10/01 04:47:23;;;;;;;1.80;0.70;;;15.10;62.10;;;;;;2606526;52;21051;-73
2022/10/01 04:49:50;;;;;;;1.52;0.75;;;15.10;62.20;;;;;;2358003;53;20994;-73
2022/10/01 04:52:17;;;;;;;2.28;0.90;;;15.10;62.10;;;;;;2354242;53;21043;-73
2022/10/01 04:54:46;;;;;;;1.90;0.70;;;15.10;62.10;;;;;;2400143;52;20962;-73
2022/10/01 04:57:13;;;;;;;3.85;0.70;;;15.10;62.20;;;;;;2364023;53;20954;-73
2022/10/01 04:59:39;;;;;;;1.42;0.60;;;15.10;62.20;;;;;;2428001;52;21363;-73
2022/10/01 05:02:05;;;;;;;1.80;0.77;;;15.10;62.20;;;;;;2371561;53;20959;-74
2022/10/01 05:04:32;;;;;;;1.90;0.85;;;15.10;62.30;;;;;;2440919;52;20938;-75
2022/10/01 05:06:58;;;;;;;2.12;0.73;;;15.10;62.20;;;;;;2544534;52;21010;-74
2022/10/01 05:09:25;;;;;;;1.55;0.62;;;15.10;62.30;;;;;;2371994;53;20915;-74
2022/10/01 05:11:51;;;;;;;2.37;0.77;;;15.10;62.30;;;;;;2363797;53;21074;-75
2022/10/01 05:14:20;;;;;;;2.72;0.82;;;15.00;62.90;;;;;;2354264;53;20918;-76
2022/10/01 05:16:46;;;;;;;3.70;1.30;;;15.10;62.40;;;;;;2624305;52;21749;-75
2022/10/01 05:19:14;;;;;;;2.10;1.00;;;15.00;62.30;;;;;;2371594;53;20918;-75
2022/10/01 05:21:41;;;;;;;1.80;0.70;;;15.00;62.30;;;;;;2481754;52;20997;-74
2022/10/01 05:24:09;;;;;;;2.67;0.90;;;15.00;62.40;;;;;;2499960;52;21660;-75
2022/10/01 05:26:38;;;;;;;1.52;0.70;;;15.00;62.50;;;;;;2599730;52;21372;-75
2022/10/01 05:29:05;;;;;;;2.08;0.80;;;14.90;62.40;;;;;;2371373;53;21345;-74
2022/10/01 05:31:33;;;;;;;1.70;0.70;;;14.90;62.50;;;;;;2355580;53;21360;-76
2022/10/01 05:33:59;;;;;;;1.87;0.88;;;14.90;62.60;;;;;;2368146;53;21427;-75
2022/10/01 05:36:27;;;;;;;2.22;0.80;;;14.90;62.60;;;;;;2370994;53;20950;-74
2022/10/01 05:38:53;;;;;;;2.35;0.88;;;14.80;62.60;;;;;;2353917;53;21463;-74
2022/10/01 05:41:19;;;;;;;2.03;0.90;;;14.80;62.60;;;;;;2360056;53;20934;-74
2022/10/01 05:43:50;;;;;;;2.15;0.90;;;14.80;62.70;;;;;;2358816;53;21768;-76
2022/10/01 05:46:16;;;;;;;2.28;1.00;;;14.80;62.80;;;;;;2353142;53;20944;-76
2022/10/01 05:48:43;;;;;;;2.55;0.90;;;14.70;62.60;;;;;;2371014;53;20942;-76
2022/10/01 05:51:09;;;;;;;1.87;0.75;;;14.70;62.60;;;;;;2371719;53;20910;-76
2022/10/01 05:53:37;;;;;;;1.70;0.70;;;14.70;62.70;;;;;;2371309;53;20978;-76
2022/10/01 05:56:05;;;;;;;1.58;0.70;;;14.60;62.70;;;;;;2557837;52;21498;-76
2022/10/01 05:58:32;;;;;;;2.65;0.88;;;14.60;62.90;;;;;;2372003;53;20962;-76
2022/10/01 06:00:59;;;;;;;1.90;0.80;;;14.60;63.00;;;;;;2460049;52;20894;-75
2022/10/01 06:03:27;;;;;;;2.22;0.80;;;14.50;63.30;;;;;;2370732;53;20946;-76
2022/10/01 06:05:53;;;;;;;2.95;1.42;;;14.50;64.00;;;;;;2345522;53;20965;-80
2022/10/01 06:08:20;;;;;;;3.20;1.33;;;14.50;64.70;;;;;;2483121;53;20886;-76
2022/10/01 06:10:47;;;;;;;6.75;2.83;;;14.50;65.20;;;;;;2599820;52;20958;-77
2022/10/01 06:13:16;;;;;;;10.85;4.10;;;14.40;65.50;;;;;;2410765;52;21092;-75
2022/10/01 06:15:43;;;;;;;7.68;3.30;;;14.40;65.90;;;;;;2350284;53;21611;-75
2022/10/01 06:18:10;;;;;;;5.07;2.60;;;14.40;66.30;;;;;;2343383;53;20913;-76
2022/10/01 06:20:38;;;;;;;4.60;2.37;;;14.30;66.50;;;;;;2462666;52;20967;-79
2022/10/01 06:23:06;;;;;;;3.17;1.60;;;14.30;66.80;;;;;;2349835;53;20989;-76
2022/10/01 06:25:33;;;;;;;2.25;1.15;;;14.30;67.10;;;;;;2343043;53;20996;-78
2022/10/01 06:28:04;;;;;;;3.80;2.15;;;14.30;67.30;;;;;;2348095;53;20932;-75
2022/10/01 06:30:31;;;;;;;3.83;2.17;;;14.30;67.50;;;;;;2371114;53;20950;-76
2022/10/01 06:33:03;;;;;;;5.25;1.80;;;14.30;67.70;;;;;;2339092;53;20918;-76
2022/10/01 06:35:30;;;;;;;4.28;1.48;;;14.30;67.80;;;;;;2411957;52;20963;-77
2022/10/01 06:37:57;;;;;;;2.50;1.20;;;14.30;68.00;;;;;;2370355;53;21388;-76
2022/10/01 06:40:24;;;;;;;2.60;1.10;;;14.30;68.20;;;;;;2347011;53;20948;-76
2022/10/01 06:42:50;;;;;;;2.37;1.10;;;14.30;68.30;;;;;;2372417;53;21014;-77
2022/10/01 06:45:19;;;;;;;2.97;1.25;;;14.30;68.40;;;;;;2371213;53;21032;-75
2022/10/01 06:47:53;;;;;;;7.75;1.10;;;14.30;68.50;;;;;;2371735;53;21037;-75
2022/10/01 06:50:20;;;;;;;1.95;0.93;;;14.30;68.40;;;;;;2371855;53;20957;-77
2022/10/01 06:52:49;;;;;;;2.75;1.08;;;14.30;68.60;;;;;;2361694;53;20945;-75
2022/10/01 06:55:19;;;;;;;2.75;1.25;;;14.30;68.80;;;;;;2357148;53;21058;-75
2022/10/01 06:57:46;;;;;;;2.30;0.90;;;14.30;68.80;;;;;;2352112;53;20954;-74
2022/10/01 07:00:13;;;;;;;1.95;0.90;;;14.30;69.00;;;;;;2440238;52;20962;-74
2022/10/01 07:02:39;;;;;;;2.20;0.90;;;14.30;69.00;;;;;;2371823;52;20919;-75
2022/10/01 07:05:06;;;;;;;2.37;1.20;;;14.30;69.10;;;;;;2371114;53;21570;-76
2022/10/01 07:07:34;;;;;;;2.40;1.10;;;14.30;69.20;;;;;;2370336;53;20982;-75
2022/10/01 07:10:02;;;;;;;2.50;1.10;;;14.30;69.30;;;;;;2370900;53;21014;-75
2022/10/01 07:12:28;;;;;;;2.75;1.10;;;14.30;69.40;;;;;;2371250;53;21720;-75
2022/10/01 07:14:55;;;;;;;2.42;1.00;;;14.30;69.40;;;;;;2370896;53;20942;-76
2022/10/01 07:17:22;;;;;;;2.17;0.90;;;14.30;69.40;;;;;;2371334;53;20913;-75
2022/10/01 07:19:48;;;;;;;2.65;1.10;;;14.40;69.50;;;;;;2540894;52;20934;-75
2022/10/01 07:22:16;;;;;;;5.65;1.20;;;14.40;69.60;;;;;;2371121;53;21062;-74
2022/10/01 07:24:44;;;;;;;2.22;1.00;;;14.40;69.70;;;;;;2501015;52;20986;-75
2022/10/01 07:27:11;;;;;;;3.22;1.25;;;14.40;69.70;;;;;;2364088;53;20946;-74
2022/10/01 07:29:38;;;;;;;2.53;1.02;;;14.50;69.80;;;;;;2604643;52;20939;-74
2022/10/01 07:32:07;;;;;;;2.92;1.25;;;14.50;69.80;;;;;;2351285;53;20922;-74
2022/10/01 07:34:35;;;;;;;3.37;1.33;;;14.50;69.90;;;;;;2371163;53;20986;-75
2022/10/01 07:37:02;;;;;;;2.08;0.90;;;14.50;69.90;;;;;;2371246;53;20973;-75
2022/10/01 07:39:29;;;;;;;1.95;0.95;;;14.50;69.90;;;;;;2471053;52;21002;-75
2022/10/01 07:41:55;;;;;;;2.17;1.05;;;14.50;69.90;;;;;;2529028;52;20991;-75
2022/10/01 07:44:22;;;;;;;3.83;1.30;;;14.50;70.00;;;;;;2370320;53;21012;-74
2022/10/01 07:46:48;;;;;;;3.78;1.23;;;14.50;70.00;;;;;;2371207;53;20958;-73
2022/10/01 07:49:15;;;;;;;2.65;1.20;;;14.60;70.10;;;;;;2370535;53;20939;-73
2022/10/01 07:51:44;;;;;;;1.92;0.98;;;14.50;70.00;;;;;;2370604;53;21435;-74
2022/10/01 07:54:12;;;;;;;2.67;1.00;;;14.60;70.10;;;;;;2369725;53;20942;-75
2022/10/01 07:56:39;;;;;;;2.28;0.80;;;14.60;70.10;;;;;;2366410;53;21518;-74
2022/10/01 07:59:07;;;;;;;3.42;1.12;;;14.60;70.10;;;;;;2392896;53;20934;-74
2022/10/01 08:01:33;;;;;;;2.00;0.80;;;14.60;70.10;;;;;;2369974;53;21300;-73
2022/10/01 08:04:00;;;;;;;1.90;0.90;;;14.60;70.20;;;;;;2370842;53;20962;-74
2022/10/01 08:06:26;;;;;;;2.12;1.10;;;14.60;70.20;;;;;;2417532;52;20958;-73
2022/10/01 08:08:52;;;;;;;2.72;1.25;;;14.60;70.20;;;;;;2581469;52;20997;-74
2022/10/01 08:11:18;;;;;;;2.37;0.80;;;14.60;70.20;;;;;;2497693;52;20910;-75
2022/10/01 08:13:45;;;;;;;3.30;1.10;;;14.60;70.20;;;;;;2616779;52;20939;-73
2022/10/01 08:16:11;;;;;;;5.37;1.20;;;14.70;70.30;;;;;;2344766;53;20931;-74
2022/10/01 08:18:39;;;;;;;2.72;1.05;;;14.70;70.40;;;;;;2374151;52;20987;-76
2022/10/01 08:21:06;;;;;;;2.35;1.00;;;14.70;70.30;;;;;;2369658;53;20926;-75
2022/10/01 08:23:32;;;;;;;2.65;1.00;;;14.70;70.40;;;;;;2423051;52;21419;-74
2022/10/01 08:26:01;;;;;;;2.33;0.80;;;14.70;70.40;;;;;;2371477;53;21057;-74
2022/10/01 08:28:28;;;;;;;4.68;1.10;;;14.70;70.40;;;;;;2494793;52;20935;-74
2022/10/01 08:30:55;;;;;;;1.90;0.90;;;14.70;70.50;;;;;;2623869;52;20923;-74
2022/10/01 08:33:21;;;;;;;1.52;0.73;;;14.70;70.50;;;;;;2370609;53;20946;-74
2022/10/01 08:35:47;;;;;;;2.10;1.00;;;14.80;70.60;;;;;;2370826;53;20915;-75
2022/10/01 08:38:13;;;;;;;1.90;0.80;;;14.80;70.60;;;;;;2370646;53;21462;-74
2022/10/01 08:40:43;;;;;;;2.50;0.80;;;14.80;70.70;;;;;;2370714;53;20995;-74
2022/10/01 08:43:37;;;;;;;2.12;1.00;;;14.80;70.70;;;;;;2526859;52;21290;-74
2022/10/01 08:46:15;;;;;;;1.77;0.82;;;14.90;70.60;;;;;;2366202;53;20966;-74
2022/10/01 08:49:01;;;;;;;1.75;0.82;;;14.90;70.80;;;;;;2359119;53;21270;-74
2022/10/01 08:54:45;;;;;;;2.97;0.73;;;14.90;70.60;;;;;;2370917;53;21566;-75
2022/10/01 08:57:13;;;;;;;2.10;0.80;;;14.90;69.80;;;;;;2623237;52;21081;-75
2022/10/01 08:59:52;;;;;;;1.95;0.93;;;15.00;70.80;;;;;;2371043;53;20994;-76
2022/10/01 09:02:31;;;;;;;1.80;0.80;;;15.00;70.50;;;;;;2370234;53;20965;-75
2022/10/01 09:05:03;;;;;;;2.30;1.10;;;15.00;70.50;;;;;;2370743;53;20934;-75
2022/10/01 09:11:48;;;;;;;2.20;1.00;;;15.00;70.80;;;;;;2370496;53;20934;-74
2022/10/01 09:14:59;;;;;;;1.83;0.70;;;15.00;70.10;;;;;;2371296;53;21033;-74
2022/10/01 09:17:52;;;;;;;2.03;0.90;;;15.10;70.70;;;;;;2369798;53;21249;-75
2022/10/01 09:20:47;;;;;;;2.53;0.70;;;15.10;70.80;;;;;;2372129;53;20966;-75
2022/10/01 09:23:53;;;;;;;2.55;0.90;;;15.10;70.40;;;;;;2371097;53;21022;-74
2022/10/01 09:26:19;;;;;;;3.03;0.93;;;15.10;70.20;;;;;;2402206;52;21758;-74
2022/10/01 09:28:48;;;;;;;3.75;0.90;;;15.20;71.20;;;;;;2316523;53;1660184;-74
2022/10/01 09:32:16;;;;;;;1.87;0.85;;;15.20;71.30;;;;;;2579521;52;20998;-75
2022/10/01 09:34:42;;;;;;;1.25;0.65;;;15.20;70.30;;;;;;2341956;53;21384;-75
2022/10/01 09:37:32;;;;;;;2.28;0.68;;;15.20;71.30;;;;;;2342524;53;20946;-75
2022/10/01 09:40:14;;;;;;;1.33;0.57;;;15.20;71.20;;;;;;2379075;53;21490;-75
2022/10/01 09:42:40;;;;;;;1.45;0.62;;;15.30;71.00;;;;;;2366497;52;20967;-75
2022/10/01 09:45:11;;;;;;;2.15;0.60;;;15.30;71.40;;;;;;2342358;53;20990;-73
2022/10/01 09:47:37;;;;;;;1.62;0.70;;;15.30;71.20;;;;;;2343216;53;21300;-73
2022/10/01 09:50:04;;;;;;;2.40;0.90;;;15.30;71.30;;;;;;2585713;52;20981;-74
2022/10/01 09:52:33;;;;;;;1.60;0.65;;;15.30;71.20;;;;;;2323718;54;20916;-75
2022/10/01 10:01:52;;;;;;;2.15;0.70;;;15.40;71.30;;;;;;2342255;54;20920;-75
2022/10/01 10:04:19;;;;;;;2.85;0.60;;;15.50;70.40;;;;;;2344086;54;20992;-74
2022/10/01 10:06:46;;;;;;;1.58;0.70;;;15.50;71.40;;;;;;2349672;53;20919;-74
2022/10/01 10:09:16;;;;;;;1.50;0.52;;;15.50;71.50;;;;;;2370997;53;21408;-74
2022/10/01 10:11:43;;;;;;;2.05;0.75;;;15.50;71.50;;;;;;2376468;52;20937;-75
2022/10/01 10:14:23;;;;;;;1.67;0.62;;;15.50;71.70;;;;;;2343194;53;20916;-74
2022/10/01 10:16:50;;;;;;;1.98;0.70;;;15.60;71.50;;;;;;2342292;53;21453;-74
2022/10/01 10:19:34;;;;;;;1.33;0.55;;;15.60;71.90;;;;;;2497600;52;20966;-76
2022/10/01 10:22:21;;;;;;;1.87;0.75;;;15.60;71.30;;;;;;2370926;53;21366;-74
2022/10/01 10:24:47;;;;;;;2.40;0.80;;;15.60;71.50;;;;;;2395165;52;20914;-74
2022/10/01 10:27:28;;;;;;;1.40;0.60;;;15.70;72.00;;;;;;2386344;52;20970;-75
2022/10/01 10:30:12;;;;;;;2.10;0.70;;;15.70;71.70;;;;;;2371372;53;20982;-74
2022/10/01 10:32:38;;;;;;;2.00;0.60;;;15.70;71.70;;;;;;2389587;52;20913;-74
2022/10/01 10:35:09;;;;;;;1.33;0.65;;;15.70;72.00;;;;;;2371139;53;20990;-74
2022/10/01 10:37:36;;;;;;;1.25;0.57;;;15.80;72.00;;;;;;2364558;53;21407;-74
2022/10/01 10:40:04;;;;;;;1.25;0.50;;;15.80;72.10;;;;;;2350334;53;21076;-74
2022/10/01 10:42:32;;;;;;;1.00;0.50;;;15.80;72.10;;;;;;2346361;53;20933;-74
2022/10/01 10:45:02;;;;;;;1.20;0.57;;;15.80;72.10;;;;;;2358481;53;20971;-75
2022/10/01 10:47:30;;;;;;;1.17;0.50;;;15.90;72.00;;;;;;2371297;53;21014;-74
2022/10/01 10:49:57;;;;;;;2.12;0.77;;;15.90;72.10;;;;;;2370925;53;21396;-75
2022/10/01 10:52:35;;;;;;;1.80;0.70;;;15.90;72.00;;;;;;2371549;53;21006;-76
2022/10/01 10:55:24;;;;;;;1.83;0.70;;;15.90;72.60;;;;;;2367920;53;21467;-73
2022/10/01 10:57:51;;;;;;;1.17;0.52;;;16.00;71.50;;;;;;2351296;53;21324;-75
2022/10/01 11:00:22;;;;;;;1.75;0.60;;;16.00;72.10;;;;;;2371800;53;20943;-74
2022/10/01 11:02:57;;;;;;;1.50;0.60;;;16.00;72.10;;;;;;2623330;52;21350;-74
2022/10/01 11:05:30;;;;;;;1.95;0.77;;;16.00;72.00;;;;;;2447913;52;20962;-75
2022/10/01 11:08:04;;;;;;;1.62;0.70;;;16.00;72.10;;;;;;2622637;52;20946;-75
2022/10/01 11:11:54;;;;;;;1.92;0.65;;;16.10;72.20;;;;;;2369472;53;20970;-74
2022/10/01 11:22:39;;;;;;;1.15;0.57;;;16.10;71.20;;;;;;2370810;53;20919;-74
2022/10/01 11:25:24;;;;;;;1.55;0.52;;;16.30;71.30;;;;;;2395434;52;21558;-73
2022/10/01 11:28:36;;;;;;;1.15;0.57;;;16.30;72.00;;;;;;2350920;53;21480;-75
2022/10/01 11:31:30;;;;;;;1.25;0.50;;;16.30;72.00;;;;;;2430976;52;20980;-74
2022/10/01 11:37:50;;;;;;;1.50;0.60;;;16.30;72.10;;;;;;2343518;53;21017;-74
2022/10/01 11:40:53;;;;;;;0.45;0.30;;;16.40;71.50;;;;;;2341833;53;21033;-73
2022/10/01 11:43:29;;;;;;;1.05;0.50;;;16.40;71.70;;;;;;2343356;53;20956;-74
2022/10/01 11:45:59;;;;;;;1.83;0.60;;;16.40;72.40;;;;;;2369497;53;20945;-73
2022/10/01 11:48:28;;;;;;;1.42;0.60;;;16.50;72.80;;;;;;2484746;52;21815;-74
2022/10/01 11:50:57;;;;;;;1.27;0.60;;;16.50;72.70;;;;;;2349378;53;20966;-75
2022/10/01 11:53:36;;;;;;;3.80;0.70;;;16.50;72.80;;;;;;2353525;53;20993;-75
2022/10/01 11:59:21;;;;;;;1.58;0.60;;;16.60;72.20;;;;;;2342366;53;20921;-75
2022/10/01 12:08:57;;;;;;;1.05;0.55;;;16.60;72.60;;;;;;2479243;52;21013;-74
2022/10/01 12:11:34;;;;;;;1.17;0.50;;;16.60;72.20;;;;;;2371135;53;20933;-75
2022/10/01 12:14:15;;;;;;;0.85;0.30;;;16.80;72.70;;;;;;2370486;53;21076;-74
2022/10/01 12:16:50;;;;;;;0.95;0.40;;;16.80;72.70;;;;;;2372343;53;21906;-73
2022/10/01 12:19:54;;;;;;;0.95;0.30;;;16.80;72.50;;;;;;2370944;53;20966;-75
2022/10/01 12:22:30;;;;;;;0.98;0.40;;;16.80;72.80;;;;;;2597685;52;21073;-74
2022/10/01 12:24:56;;;;;;;0.90;0.30;;;16.90;72.80;;;;;;2371083;53;20981;-75
2022/10/01 12:27:53;;;;;;;0.93;0.37;;;16.90;72.90;;;;;;2419331;52;21391;-74
2022/10/01 12:30:21;;;;;;;0.60;0.30;;;16.90;72.70;;;;;;2534662;52;20922;-74
2022/10/01 12:33:24;;;;;;;0.98;0.40;;;17.00;73.00;;;;;;2596357;52;21050;-74
2022/10/01 12:36:20;;;;;;;4.07;0.50;;;17.00;72.50;;;;;;2368656;56;21062;-75
2022/10/01 12:38:59;;;;;;;1.37;0.40;;;17.10;72.40;;;;;;2359203;53;21982;-75
2022/10/01 12:43:07;;;;;;;1.42;0.52;;;17.10;72.60;;;;;;2587218;52;20942;-75
2022/10/01 12:45:50;;;;;;;1.12;0.40;;;17.20;71.80;;;;;;2371352;53;20902;-74
2022/10/01 12:49:46;;;;;;;;;;;17.20;72.50;;;;;;2375198;53;20942;-74
2022/10/01 12:52:47;;;;;;;1.58;0.35;;;17.20;71.80;;;;;;2495362;52;20602;-74
2022/10/01 12:58:50;;;;;;;0.80;0.25;;;17.30;72.10;;;;;;2610007;52;21003;-76
2022/10/01 13:01:29;;;;;;;1.10;0.30;;;17.30;72.70;;;;;;2370361;53;20934;-74
2022/10/01 13:04:32;;;;;;;0.98;0.40;;;17.40;72.60;;;;;;2352336;53;20990;-76
2022/10/01 13:09:49;;;;;;;0.85;0.35;;;17.40;72.20;;;;;;2371442;53;21001;-75
2022/10/01 13:13:50;;;;;;;0.37;0.30;;;17.50;72.60;;;;;;2370379;53;20950;-79
2022/10/01 13:17:21;;;;;;;0.62;0.30;;;17.60;72.00;;;;;;2448182;52;20950;-78
2022/10/01 13:20:02;;;;;;;0.75;0.32;;;17.60;72.00;;;;;;2369238;53;21011;-77
2022/10/01 13:22:53;;;;;;;0.73;0.30;;;17.70;72.60;;;;;;2372290;53;20922;-76
2022/10/01 13:25:36;;;;;;;0.80;0.40;;;17.70;72.40;;;;;;2612211;52;21042;-76
2022/10/01 13:28:16;;;;;;;1.60;0.50;;;17.70;72.40;;;;;;2345388;53;21020;-74
2022/10/01 13:31:09;;;;;;;0.88;0.40;;;17.80;72.50;;;;;;2341368;53;21786;-79
2022/10/01 13:33:35;;;;;;;1.40;0.50;;;17.80;72.30;;;;;;2343415;53;20932;-80
2022/10/01 13:36:03;;;;;;;1.05;0.40;;;17.80;72.90;;;;;;2342602;53;20937;-77
2022/10/01 13:38:39;;;;;;;0.82;0.40;;;17.80;72.80;;;;;;2342305;53;20996;-78
2022/10/01 13:41:23;;;;;;;0.95;0.60;;;17.90;72.40;;;;;;2343207;53;21417;-74
2022/10/01 13:43:58;;;;;;;0.98;0.50;;;17.90;72.60;;;;;;2341369;53;21493;-75
2022/10/01 13:46:26;;;;;;;1.17;0.50;;;17.90;72.40;;;;;;2342961;53;21379;-77
2022/10/01 13:48:52;;;;;;;1.35;0.52;;;17.90;72.50;;;;;;2374155;53;20944;-78
2022/10/01 13:51:35;;;;;;;1.35;0.40;;;17.90;72.50;;;;;;2343180;53;20940;-78
2022/10/01 13:54:01;;;;;;;1.05;0.32;;;18.00;71.90;;;;;;2343744;53;20995;-77
2022/10/01 13:56:34;;;;;;;1.90;0.65;;;17.90;72.40;;;;;;2435112;52;21004;-74
2022/10/01 13:59:01;;;;;;;1.20;0.50;;;18.00;72.30;;;;;;2353942;53;20953;-80
2022/10/01 14:01:40;;;;;;;0.88;0.40;;;18.00;72.40;;;;;;2345672;53;21299;-78
2022/10/01 14:04:36;;;;;;;1.05;0.43;;;18.00;71.90;;;;;;2355966;52;20937;-78
2022/10/01 14:07:14;;;;;;;0.90;0.50;;;18.00;71.70;;;;;;2565722;52;20989;-79
2022/10/01 14:09:59;;;;;;;0.57;0.30;;;18.00;72.30;;;;;;2342889;53;21342;-80
2022/10/01 14:15:58;;;;;;;1.12;0.30;;;18.00;72.10;;;;;;2346776;53;21788;-80
2022/10/01 14:18:28;;;;;;;1.10;0.40;;;18.00;71.50;;;;;;2437810;53;20987;-76
2022/10/01 14:22:46;;;;;;;1.12;0.40;;;18.00;72.20;;;;;;2342904;53;21430;-75
2022/10/01 14:25:51;;;;;;;0.30;0.20;;;18.00;71.10;;;;;;2589926;52;21056;-77
2022/10/01 14:28:56;;;;;;;1.10;0.40;;;18.00;71.40;;;;;;2345405;53;21056;-77
2022/10/01 14:31:30;;;;;;;1.35;0.60;;;18.10;71.50;;;;;;2347831;53;20955;-77